createdAt,value
2022-07-25T00:00:22.989Z,91749.44
2022-07-25T00:03:26.324Z,91742.91
2022-07-25T00:06:31.615Z,91754.16
2022-07-25T00:09:34.974Z,91772.00
2022-07-25T00:12:38.157Z,91801.50
2022-07-25T00:15:41.227Z,91809.19
2022-07-25T00:18:44.312Z,91807.44
2022-07-25T00:21:48.532Z,91801.75
2022-07-25T00:24:51.585Z,91794.88
2022-07-25T00:27:54.597Z,91792.75
2022-07-25T00:30:58.580Z,91780.84
2022-07-25T00:34:01.736Z,91789.69
2022-07-25T00:37:04.759Z,91791.22
2022-07-25T00:40:08.363Z,91782.63
2022-07-25T00:43:11.433Z,91774.13
2022-07-25T00:46:16.008Z,91765.41
2022-07-25T00:49:22.951Z,91786.28
2022-07-25T00:52:26.446Z,91773.25
2022-07-25T00:55:31.024Z,91783.22
2022-07-25T00:58:34.300Z,91789.34
2022-07-25T01:01:38.663Z,91777.69
2022-07-25T01:04:42.915Z,91773.75
2022-07-25T01:07:47.413Z,91777.53
2022-07-25T01:10:50.533Z,91781.97
2022-07-25T01:13:53.686Z,91787.38
2022-07-25T01:16:56.985Z,91786.94
2022-07-25T01:20:00.266Z,91793.53
2022-07-25T01:23:03.346Z,91802.97
2022-07-25T01:26:06.526Z,91806.69
2022-07-25T01:29:09.576Z,91801.19
2022-07-25T01:32:13.334Z,91801.72
2022-07-25T01:35:16.390Z,91821.47
2022-07-25T01:38:19.592Z,91812.44
2022-07-25T01:41:22.895Z,91820.03
2022-07-25T01:44:25.995Z,91813.97
2022-07-25T01:47:29.064Z,91820.16
2022-07-25T01:50:32.093Z,91820.06
2022-07-25T01:53:35.107Z,91819.88
2022-07-25T01:56:45.926Z,91822.47
2022-07-25T01:59:51.431Z,91813.84
2022-07-25T02:03:14.349Z,91824.09
2022-07-25T02:06:19.391Z,91828.22
2022-07-25T02:09:22.575Z,91810.69
2022-07-25T02:12:25.570Z,91805.44
2022-07-25T02:15:28.657Z,91802.34
2022-07-25T02:18:31.673Z,91806.56
2022-07-25T02:21:35.075Z,91802.38
2022-07-25T02:24:38.213Z,91804.09
2022-07-25T02:27:41.422Z,91801.97
2022-07-25T02:30:44.687Z,91801.47
2022-07-25T02:33:47.729Z,91792.59
2022-07-25T02:36:51.023Z,91803.56
2022-07-25T02:39:54.073Z,91787.97
2022-07-25T02:42:57.078Z,91784.03
2022-07-25T02:46:00.296Z,91794.91
2022-07-25T02:49:03.848Z,91790.75
2022-07-25T02:52:06.943Z,91790.94
2022-07-25T02:55:10.577Z,91799.84
2022-07-25T02:58:13.628Z,91804.56
2022-07-25T03:01:16.747Z,91802.19
2022-07-25T03:04:19.891Z,91802.63
2022-07-25T03:07:23.030Z,91803.63
2022-07-25T03:10:26.044Z,91802.19
2022-07-25T03:13:29.114Z,91809.34
2022-07-25T03:16:32.343Z,91813.69
2022-07-25T03:19:35.498Z,91810.34
2022-07-25T03:22:38.712Z,91814.69
2022-07-25T03:25:42.002Z,91819.59
2022-07-25T03:28:45.123Z,91836.41
2022-07-25T03:31:48.227Z,91849.84
2022-07-25T03:34:51.321Z,91858.78
2022-07-25T03:37:54.980Z,91857.47
2022-07-25T03:40:58.009Z,91852.03
2022-07-25T03:44:00.992Z,91851.38
2022-07-25T03:47:04.020Z,91851.38
2022-07-25T03:50:07.196Z,91850.03
2022-07-25T03:53:10.304Z,91843.06
2022-07-25T03:56:13.455Z,91862.22
2022-07-25T03:59:19.632Z,91861.09
2022-07-25T04:02:22.803Z,91855.00
2022-07-25T04:05:25.948Z,91855.88
2022-07-25T04:08:28.961Z,91839.50
2022-07-25T04:11:32.082Z,91822.63
2022-07-25T04:14:35.222Z,91827.91
2022-07-25T04:17:39.615Z,91838.03
2022-07-25T04:20:42.814Z,91832.66
2022-07-25T04:23:45.900Z,91852.31
2022-07-25T04:26:48.971Z,91823.31
2022-07-25T04:29:52.515Z,91819.44
2022-07-25T04:32:55.597Z,91797.31
2022-07-25T04:35:58.709Z,91782.25
2022-07-25T04:39:01.761Z,91783.56
2022-07-25T04:42:05.005Z,91765.97
2022-07-25T04:45:09.286Z,91819.69
2022-07-25T04:48:12.303Z,91844.66
2022-07-25T04:51:15.720Z,91840.59
2022-07-25T04:54:18.748Z,91846.28
2022-07-25T04:57:21.809Z,91842.38
2022-07-25T05:00:24.957Z,91827.44
2022-07-25T05:03:27.966Z,91830.72
2022-07-25T05:06:31.049Z,91831.09
2022-07-25T05:09:34.181Z,91863.09
2022-07-25T05:12:37.303Z,91862.41
2022-07-25T05:15:40.362Z,91862.25
2022-07-25T05:18:43.434Z,91878.66
2022-07-25T05:21:46.444Z,91881.34
2022-07-25T05:24:49.574Z,91860.16
2022-07-25T05:27:55.245Z,91854.94
2022-07-25T05:30:58.248Z,91848.09
2022-07-25T05:34:01.291Z,91843.50
2022-07-25T05:37:04.294Z,91837.50
2022-07-25T05:40:08.201Z,91843.31
2022-07-25T05:43:11.233Z,91835.59
2022-07-25T05:46:14.743Z,91828.59
2022-07-25T05:49:17.910Z,91842.91
2022-07-25T05:52:21.073Z,91836.94
2022-07-25T05:55:24.137Z,91825.63
2022-07-25T05:58:29.830Z,91824.75
2022-07-25T06:01:33.061Z,91820.56
2022-07-25T06:04:36.267Z,91825.63
2022-07-25T06:07:39.405Z,91813.69
2022-07-25T06:10:43.439Z,91812.91
2022-07-25T06:13:46.408Z,91807.00
2022-07-25T06:16:49.560Z,91809.31
2022-07-25T06:19:52.722Z,91821.22
2022-07-25T06:22:55.750Z,91821.47
2022-07-25T06:25:58.784Z,91813.53
2022-07-25T06:29:01.784Z,91808.53
2022-07-25T06:32:05.056Z,91808.69
2022-07-25T06:35:08.358Z,91817.66
2022-07-25T06:38:11.347Z,91808.22
2022-07-25T06:41:17.424Z,91809.78
2022-07-25T06:44:20.467Z,91805.88
2022-07-25T06:47:23.555Z,91809.91
2022-07-25T06:50:26.743Z,91809.91
2022-07-25T06:53:29.808Z,91795.41
2022-07-25T06:56:33.576Z,91785.78
2022-07-25T06:59:36.797Z,91788.91
2022-07-25T07:03:01.861Z,91784.88
2022-07-25T07:06:10.138Z,91784.09
2022-07-25T07:09:13.164Z,91757.22
2022-07-25T07:12:16.257Z,91755.16
2022-07-25T07:15:19.444Z,91750.56
2022-07-25T07:18:23.162Z,91753.84
2022-07-25T07:21:26.261Z,91758.56
2022-07-25T07:24:29.347Z,91758.59
2022-07-25T07:27:32.364Z,91752.50
2022-07-25T07:31:05.647Z,91751.84
2022-07-25T07:34:00.223Z,91754.97
2022-07-25T07:37:04.191Z,91751.72
2022-07-25T07:40:07.837Z,91753.25
2022-07-25T07:43:20.153Z,91752.47
2022-07-25T07:46:23.181Z,91753.47
2022-07-25T07:49:26.384Z,91757.44
2022-07-25T07:52:29.531Z,91751.13
2022-07-25T07:55:44.660Z,91760.50
2022-07-25T07:58:47.997Z,91745.13
2022-07-25T08:01:51.082Z,91751.19
2022-07-25T08:04:54.264Z,91745.50
2022-07-25T08:07:57.618Z,91742.81
2022-07-25T08:11:00.782Z,91739.22
2022-07-25T08:14:05.450Z,91737.28
2022-07-25T08:17:08.600Z,91712.16
2022-07-25T08:20:36.882Z,91710.03
2022-07-25T08:23:39.478Z,91696.97
2022-07-25T08:26:42.524Z,91707.41
2022-07-25T08:29:45.611Z,91678.78
2022-07-25T08:33:05.894Z,91685.78
2022-07-25T08:36:11.461Z,91691.88
2022-07-25T08:39:14.749Z,91670.16
2022-07-25T08:42:20.063Z,91677.88
2022-07-25T08:45:23.788Z,91672.91
2022-07-25T08:48:27.683Z,91672.34
2022-07-25T08:51:32.674Z,91677.22
2022-07-25T08:54:37.146Z,91682.09
2022-07-25T08:57:44.173Z,91699.41
2022-07-25T09:00:48.334Z,91710.81
2022-07-25T09:03:51.367Z,91721.34
2022-07-25T09:06:54.417Z,91728.09
2022-07-25T09:09:57.459Z,91719.53
2022-07-25T09:13:11.113Z,91734.06
2022-07-25T09:16:14.941Z,91734.41
2022-07-25T09:19:20.743Z,91739.31
2022-07-25T09:22:24.265Z,91749.38
2022-07-25T09:25:32.088Z,91742.50
2022-07-25T09:28:46.204Z,91739.81
2022-07-25T09:31:49.433Z,91738.06
2022-07-25T09:34:52.598Z,91742.00
2022-07-25T09:37:55.674Z,91743.09
2022-07-25T09:41:01.965Z,91745.31
2022-07-25T09:44:05.989Z,91748.44
2022-07-25T09:47:14.291Z,91747.66
2022-07-25T09:50:17.901Z,91753.47
2022-07-25T09:53:21.371Z,91759.91
2022-07-25T09:56:24.485Z,91763.50
2022-07-25T09:59:27.603Z,91774.69
2022-07-25T10:03:01.355Z,91769.94
2022-07-25T10:06:12.903Z,91787.53
2022-07-25T10:09:17.459Z,91811.25
2022-07-25T10:12:21.120Z,91814.72
2022-07-25T10:15:24.200Z,91834.19
2022-07-25T10:18:29.470Z,91836.66
2022-07-25T10:21:32.592Z,91857.03
2022-07-25T10:24:38.170Z,91862.53
2022-07-25T10:27:54.223Z,91862.69
2022-07-25T10:31:00.263Z,91867.53
2022-07-25T10:34:16.542Z,91884.63
2022-07-25T10:37:26.788Z,91892.16
2022-07-25T10:40:44.600Z,91896.25
2022-07-25T10:43:48.895Z,91880.53
2022-07-25T10:46:52.166Z,91895.41
2022-07-25T10:50:16.881Z,91883.63
2022-07-25T10:53:39.299Z,91874.06
2022-07-25T10:56:58.798Z,91871.41
2022-07-25T11:00:09.683Z,91886.19
2022-07-25T11:03:18.132Z,91926.63
2022-07-25T11:06:50.721Z,91942.22
2022-07-25T11:09:59.249Z,91944.97
2022-07-25T11:13:02.380Z,91952.63
2022-07-25T11:16:05.949Z,91953.31
2022-07-25T11:19:24.027Z,91910.28
2022-07-25T11:22:28.510Z,91927.91
2022-07-25T11:25:31.625Z,91924.38
2022-07-25T11:28:48.768Z,91950.88
2022-07-25T11:31:57.117Z,91957.31
2022-07-25T11:35:00.395Z,91932.06
2022-07-25T11:38:04.616Z,91898.25
2022-07-25T11:41:09.547Z,91870.03
2022-07-25T11:44:12.616Z,91873.81
2022-07-25T11:47:35.108Z,91908.38
2022-07-25T11:50:43.372Z,91930.38
2022-07-25T11:53:50.201Z,91943.97
2022-07-25T11:56:53.270Z,91928.88
2022-07-25T11:59:57.564Z,91932.94
2022-07-25T12:03:19.429Z,91963.78
2022-07-25T12:06:30.469Z,91982.69
2022-07-25T12:09:33.590Z,91974.28
2022-07-25T12:12:46.906Z,92004.69
2022-07-25T12:15:50.083Z,92017.28
2022-07-25T12:18:53.221Z,91984.06
2022-07-25T12:21:56.232Z,91959.34
2022-07-25T12:24:59.276Z,91961.13
2022-07-25T12:28:02.559Z,91935.50
2022-07-25T12:31:05.832Z,91917.28
2022-07-25T12:34:08.891Z,91908.31
2022-07-25T12:37:12.000Z,91905.25
2022-07-25T12:40:16.149Z,91903.88
2022-07-25T12:43:19.462Z,91930.72
2022-07-25T12:46:22.529Z,91926.06
2022-07-25T12:49:25.657Z,91934.50
2022-07-25T12:52:29.191Z,91928.81
2022-07-25T12:55:32.472Z,91920.41
2022-07-25T12:58:35.583Z,91894.47
2022-07-25T13:01:38.784Z,91883.41
2022-07-25T13:04:41.993Z,91884.25
2022-07-25T13:07:45.184Z,91869.94
2022-07-25T13:10:48.233Z,91864.28
2022-07-25T13:13:51.365Z,91872.78
2022-07-25T13:16:54.563Z,91883.38
2022-07-25T13:19:58.035Z,91895.28
2022-07-25T13:23:01.045Z,91891.22
2022-07-25T13:26:04.250Z,91897.28
2022-07-25T13:29:09.515Z,91897.50
2022-07-25T13:32:13.086Z,91912.44
2022-07-25T13:35:20.236Z,91913.09
2022-07-25T13:38:23.877Z,91911.59
2022-07-25T13:41:27.272Z,91906.28
2022-07-25T13:44:30.265Z,91901.00
2022-07-25T13:47:36.127Z,91895.78
2022-07-25T13:50:39.293Z,91905.34
2022-07-25T13:53:42.835Z,91905.03
2022-07-25T13:56:45.875Z,91917.25
2022-07-25T13:59:49.288Z,91916.72
2022-07-25T14:02:52.237Z,91910.25
2022-07-25T14:05:55.296Z,91911.63
2022-07-25T14:08:59.282Z,91907.59
2022-07-25T14:12:02.475Z,91907.38
2022-07-25T14:15:06.375Z,91899.31
2022-07-25T14:18:10.389Z,91901.84
2022-07-25T14:21:13.545Z,91911.81
2022-07-25T14:24:16.743Z,91909.50
2022-07-25T14:27:20.073Z,91921.50
2022-07-25T14:30:23.341Z,91924.03
2022-07-25T14:33:27.071Z,91916.91
2022-07-25T14:36:30.500Z,91923.09
2022-07-25T14:39:34.683Z,91919.47
2022-07-25T14:42:39.029Z,91928.50
2022-07-25T14:45:42.666Z,91922.97
2022-07-25T14:48:45.882Z,91919.16
2022-07-25T14:51:50.129Z,91914.38
2022-07-25T14:54:53.646Z,91910.03
2022-07-25T14:57:58.581Z,91917.47
2022-07-25T15:01:02.134Z,91917.38
2022-07-25T15:04:05.845Z,91917.47
2022-07-25T15:07:09.277Z,91910.56
2022-07-25T15:10:12.624Z,91906.97
2022-07-25T15:13:32.192Z,91911.31
2022-07-25T15:16:35.986Z,91906.94
2022-07-25T15:19:39.176Z,91901.56
2022-07-25T15:22:42.239Z,91899.97
2022-07-25T15:26:01.166Z,91897.09
2022-07-25T15:29:08.675Z,91894.66
2022-07-25T15:32:12.098Z,91898.25
2022-07-25T15:35:15.669Z,91897.53
2022-07-25T15:38:20.566Z,91912.06
2022-07-25T15:41:23.799Z,91899.88
2022-07-25T15:44:26.955Z,91908.22
2022-07-25T15:47:30.139Z,91897.41
2022-07-25T15:50:33.348Z,91894.66
2022-07-25T15:53:36.724Z,91900.56
2022-07-25T15:56:40.664Z,91897.09
2022-07-25T15:59:43.955Z,91899.50
2022-07-25T16:02:47.584Z,91899.31
2022-07-25T16:05:50.899Z,91891.28
2022-07-25T16:08:54.031Z,91894.88
2022-07-25T16:12:00.998Z,91888.53
2022-07-25T16:15:05.296Z,91897.13
2022-07-25T16:18:08.534Z,91893.72
2022-07-25T16:21:11.920Z,91895.63
2022-07-25T16:24:15.054Z,91901.22
2022-07-25T16:27:18.566Z,91900.28
2022-07-25T16:30:21.986Z,91896.13
2022-07-25T16:33:25.253Z,91901.84
2022-07-25T16:36:29.944Z,91900.38
2022-07-25T16:39:32.788Z,91901.84
2022-07-25T16:42:36.580Z,91895.88
2022-07-25T16:45:39.784Z,91906.50
2022-07-25T16:48:43.049Z,91905.88
2022-07-25T16:51:46.858Z,91915.09
2022-07-25T16:54:51.266Z,91921.03
2022-07-25T16:57:54.508Z,91917.22
2022-07-25T17:00:57.776Z,91926.34
2022-07-25T17:04:00.879Z,91915.72
2022-07-25T17:07:04.546Z,91925.59
2022-07-25T17:10:09.116Z,91919.03
2022-07-25T17:13:12.395Z,91921.69
2022-07-25T17:16:15.788Z,91924.94
2022-07-25T17:19:18.987Z,91925.50
2022-07-25T17:22:22.388Z,91923.81
2022-07-25T17:25:25.513Z,91910.00
2022-07-25T17:28:28.810Z,91913.44
2022-07-25T17:31:32.064Z,91911.97
2022-07-25T17:34:35.756Z,91904.81
2022-07-25T17:37:39.129Z,91898.59
2022-07-25T17:40:42.253Z,91892.88
2022-07-25T17:43:45.434Z,91895.41
2022-07-25T17:46:50.684Z,91900.69
2022-07-25T17:49:54.040Z,91909.28
2022-07-25T17:53:01.033Z,91904.41
2022-07-25T17:56:05.010Z,91898.06
2022-07-25T17:59:09.275Z,91893.28
2022-07-25T18:02:12.368Z,91893.91
2022-07-25T18:05:15.623Z,91889.53
2022-07-25T18:08:18.639Z,91898.34
2022-07-25T18:11:21.681Z,91887.53
2022-07-25T18:14:24.694Z,91882.34
2022-07-25T18:17:27.805Z,91883.19
2022-07-25T18:20:30.892Z,91882.75
2022-07-25T18:23:33.931Z,91885.41
2022-07-25T18:26:37.047Z,91888.38
2022-07-25T18:29:40.260Z,91890.63
2022-07-25T18:32:43.710Z,91895.06
2022-07-25T18:35:46.874Z,91899.94
2022-07-25T18:38:49.974Z,91901.84
2022-07-25T18:41:53.012Z,91904.31
2022-07-25T18:44:56.199Z,91900.47
2022-07-25T18:47:59.520Z,91898.44
2022-07-25T18:51:02.515Z,91895.25
2022-07-25T18:54:05.976Z,91893.44
2022-07-25T18:57:09.262Z,91892.25
2022-07-25T19:00:12.553Z,91892.69
2022-07-25T19:03:15.609Z,91892.16
2022-07-25T19:06:18.710Z,91891.19
2022-07-25T19:09:21.927Z,91889.47
2022-07-25T19:12:27.204Z,91892.03
2022-07-25T19:15:30.330Z,91900.84
2022-07-25T19:18:35.549Z,91881.47
2022-07-25T19:21:38.985Z,91883.69
2022-07-25T19:24:41.959Z,91869.69
2022-07-25T19:27:45.125Z,91875.09
2022-07-25T19:30:48.508Z,91877.66
2022-07-25T19:33:51.687Z,91877.34
2022-07-25T19:36:56.238Z,91867.81
2022-07-25T19:39:59.276Z,91861.34
2022-07-25T19:43:02.824Z,91846.31
2022-07-25T19:46:06.004Z,91848.75
2022-07-25T19:49:09.148Z,91839.41
2022-07-25T19:52:12.387Z,91845.41
2022-07-25T19:55:15.995Z,91856.44
2022-07-25T19:58:20.743Z,91855.41
2022-07-25T20:01:24.000Z,91844.81
2022-07-25T20:04:27.381Z,91836.22
2022-07-25T20:07:30.497Z,91821.53
2022-07-25T20:10:33.635Z,91820.34
2022-07-25T20:13:37.168Z,91830.59
2022-07-25T20:16:40.759Z,91835.03
2022-07-25T20:19:43.945Z,91837.69
2022-07-25T20:22:48.077Z,91836.94
2022-07-25T20:25:51.703Z,91838.88
2022-07-25T20:28:55.733Z,91849.56
2022-07-25T20:31:59.184Z,91836.31
2022-07-25T20:35:02.497Z,91839.28
2022-07-25T20:38:09.727Z,91856.16
2022-07-25T20:41:14.051Z,91854.56
2022-07-25T20:44:17.165Z,91860.72
2022-07-25T20:47:20.298Z,91868.56
2022-07-25T20:50:23.321Z,91873.13
2022-07-25T20:53:26.387Z,91876.06
2022-07-25T20:56:29.425Z,91870.34
2022-07-25T20:59:33.064Z,91876.50
2022-07-25T21:02:36.145Z,91886.59
2022-07-25T21:05:40.200Z,91872.94
2022-07-25T21:08:43.450Z,91884.28
2022-07-25T21:11:46.493Z,91884.47
2022-07-25T21:14:49.563Z,91878.78
2022-07-25T21:17:52.694Z,91879.59
2022-07-25T21:20:55.858Z,91892.97
2022-07-25T21:23:58.910Z,91888.72
2022-07-25T21:27:02.595Z,91892.41
2022-07-25T21:30:08.140Z,91898.69
2022-07-25T21:33:14.205Z,91905.03
2022-07-25T21:36:17.910Z,91897.72
2022-07-25T21:39:20.875Z,91897.09
2022-07-25T21:42:23.940Z,91899.63
2022-07-25T21:45:27.630Z,91896.25
2022-07-25T21:48:54.324Z,91890.19
2022-07-25T21:51:57.723Z,91888.69
2022-07-25T21:55:02.110Z,91883.28
2022-07-25T21:58:06.092Z,91881.66
2022-07-25T22:01:09.200Z,91885.28
2022-07-25T22:04:12.306Z,91872.56
2022-07-25T22:07:15.482Z,91868.66
2022-07-25T22:10:23.344Z,91858.75
2022-07-25T22:13:26.385Z,91862.00
2022-07-25T22:16:29.459Z,91858.16
2022-07-25T22:19:32.693Z,91851.47
2022-07-25T22:22:35.742Z,91851.13
2022-07-25T22:25:38.746Z,91852.19
2022-07-25T22:28:42.561Z,91856.31
2022-07-25T22:31:45.694Z,91855.56
2022-07-25T22:34:48.835Z,91850.63
2022-07-25T22:37:51.845Z,91863.44
2022-07-25T22:40:54.865Z,91852.94
2022-07-25T22:43:59.896Z,91838.25
2022-07-25T22:47:03.259Z,91834.94
2022-07-25T22:50:07.263Z,91833.59
2022-07-25T22:53:10.298Z,91824.22
2022-07-25T22:56:13.397Z,91824.91
2022-07-25T22:59:17.187Z,91838.41
2022-07-25T23:02:20.219Z,91855.13
2022-07-25T23:05:23.304Z,91859.72
2022-07-25T23:08:26.432Z,91871.34
2022-07-25T23:11:29.500Z,91867.06
2022-07-25T23:14:32.549Z,91865.25
2022-07-25T23:17:36.029Z,91878.28
2022-07-25T23:20:39.127Z,91876.97
2022-07-25T23:23:42.204Z,91858.47
2022-07-25T23:26:45.235Z,91846.28
2022-07-25T23:29:48.243Z,91856.97
2022-07-25T23:32:51.358Z,91866.66
2022-07-25T23:35:55.177Z,91868.22
2022-07-25T23:38:58.206Z,91858.88
2022-07-25T23:42:01.648Z,91856.22
2022-07-25T23:45:05.163Z,91872.59
2022-07-25T23:48:09.771Z,91872.50
2022-07-25T23:51:12.814Z,91863.16
2022-07-25T23:54:16.071Z,91853.81
2022-07-25T23:57:19.102Z,91859.94
